createdAt,value
2017-12-27T00:01:11.068Z,4.00
2017-12-27T00:03:44.340Z,4.00
2017-12-27T00:06:17.616Z,4.00
2017-12-27T00:08:51.644Z,4.00
2017-12-27T00:11:34.788Z,4.00
2017-12-27T00:14:07.968Z,4.00
2017-12-27T00:16:41.272Z,4.00
2017-12-27T00:19:14.647Z,4.00
2017-12-27T00:21:48.557Z,4.00
2017-12-27T00:24:22.579Z,3.90
2017-12-27T00:26:55.837Z,4.00
2017-12-27T00:29:29.182Z,3.90
2017-12-27T00:31:56.264Z,3.90
2017-12-27T00:34:23.764Z,3.80
2017-12-27T00:36:52.040Z,3.80
2017-12-27T00:39:19.932Z,3.80
2017-12-27T00:41:47.449Z,3.70
2017-12-27T00:44:14.939Z,3.80
2017-12-27T00:46:42.448Z,3.80
2017-12-27T00:49:09.967Z,3.80
2017-12-27T00:51:37.472Z,3.80
2017-12-27T00:54:04.969Z,3.80
2017-12-27T00:56:32.469Z,3.80
2017-12-27T00:58:59.963Z,3.80
2017-12-27T01:01:28.244Z,3.80
2017-12-27T01:03:56.508Z,3.80
2017-12-27T01:06:24.040Z,3.80
2017-12-27T01:08:51.540Z,3.80
2017-12-27T01:11:19.804Z,3.90
2017-12-27T01:13:47.317Z,3.90
2017-12-27T01:16:14.811Z,3.90
2017-12-27T01:18:42.330Z,3.90
2017-12-27T01:21:09.824Z,3.90
2017-12-27T01:23:37.340Z,3.90
2017-12-27T01:26:04.837Z,3.90
2017-12-27T01:28:32.356Z,3.90
2017-12-27T01:30:59.852Z,3.90
2017-12-27T01:33:27.348Z,3.80
2017-12-27T01:35:55.624Z,3.80
2017-12-27T01:38:23.900Z,3.80
2017-12-27T01:40:52.155Z,3.80
2017-12-27T01:43:19.680Z,3.70
2017-12-27T01:45:47.172Z,3.70
2017-12-27T01:48:14.664Z,3.70
2017-12-27T01:50:42.176Z,3.70
2017-12-27T01:53:09.671Z,3.70
2017-12-27T01:55:37.952Z,3.70
2017-12-27T01:58:06.216Z,3.60
2017-12-27T02:00:34.480Z,3.70
2017-12-27T02:03:01.992Z,3.70
2017-12-27T02:05:29.488Z,3.80
2017-12-27T02:07:56.992Z,3.80
2017-12-27T02:10:24.496Z,3.70
2017-12-27T02:12:52.017Z,3.70
2017-12-27T02:15:19.516Z,3.60
2017-12-27T02:17:47.017Z,3.60
2017-12-27T02:20:15.297Z,3.60
2017-12-27T02:22:42.808Z,3.50
2017-12-27T02:25:10.316Z,3.50
2017-12-27T02:27:37.815Z,3.50
2017-12-27T02:30:05.330Z,3.50
2017-12-27T02:32:33.597Z,3.40
2017-12-27T02:35:01.877Z,3.40
2017-12-27T02:37:30.161Z,3.40
2017-12-27T02:40:13.362Z,3.30
2017-12-27T02:42:40.888Z,3.20
2017-12-27T02:45:08.380Z,3.30
2017-12-27T02:47:35.908Z,3.30
2017-12-27T02:50:03.792Z,3.20
2017-12-27T02:52:31.288Z,3.20
2017-12-27T02:54:59.665Z,3.20
2017-12-27T02:57:27.937Z,3.20
2017-12-27T02:59:56.196Z,3.20
2017-12-27T03:02:23.710Z,3.00
2017-12-27T03:04:51.212Z,3.20
2017-12-27T03:07:18.707Z,3.20
2017-12-27T03:09:46.234Z,3.20
2017-12-27T03:12:13.728Z,3.10
2017-12-27T03:14:41.261Z,3.20
2017-12-27T03:17:09.545Z,3.10
2017-12-27T03:19:37.808Z,3.10
2017-12-27T03:22:06.082Z,3.10
2017-12-27T03:24:33.637Z,3.10
2017-12-27T03:27:01.165Z,3.20
2017-12-27T03:29:28.648Z,3.20
2017-12-27T03:31:56.144Z,3.20
2017-12-27T03:34:23.656Z,3.20
2017-12-27T03:36:51.161Z,3.20
2017-12-27T03:39:18.677Z,3.20
2017-12-27T03:41:46.193Z,3.20
2017-12-27T03:44:13.717Z,3.20
2017-12-27T03:46:41.985Z,3.30
2017-12-27T03:49:09.492Z,3.30
2017-12-27T03:51:37.021Z,3.30
2017-12-27T03:54:05.280Z,3.20
2017-12-27T03:56:32.781Z,3.20
2017-12-27T03:59:01.948Z,3.30
2017-12-27T04:01:30.229Z,3.30
2017-12-27T04:03:58.537Z,3.30
2017-12-27T04:06:26.028Z,3.30
2017-12-27T04:08:53.552Z,3.30
2017-12-27T04:11:21.048Z,3.40
2017-12-27T04:13:48.544Z,3.40
2017-12-27T04:16:16.820Z,3.40
2017-12-27T04:18:45.089Z,3.40
2017-12-27T04:21:13.348Z,3.40
2017-12-27T04:23:40.855Z,3.50
2017-12-27T04:26:08.384Z,3.50
2017-12-27T04:28:36.653Z,3.50
2017-12-27T04:31:04.925Z,3.50
2017-12-27T04:33:32.453Z,3.50
2017-12-27T04:36:00.353Z,3.50
2017-12-27T04:38:27.848Z,3.50
2017-12-27T04:40:55.364Z,3.60
2017-12-27T04:43:22.860Z,3.60
2017-12-27T04:45:50.361Z,3.60
2017-12-27T04:48:18.645Z,3.60
2017-12-27T04:50:46.161Z,3.60
2017-12-27T04:53:13.675Z,3.60
2017-12-27T04:55:41.172Z,3.70
2017-12-27T04:58:08.677Z,3.70
2017-12-27T05:00:36.289Z,3.80
2017-12-27T05:03:03.780Z,3.80
2017-12-27T05:05:31.281Z,3.90
2017-12-27T05:07:59.565Z,3.90
2017-12-27T05:10:27.849Z,3.90
2017-12-27T05:12:56.117Z,3.90
2017-12-27T05:15:24.481Z,3.90
2017-12-27T05:17:51.985Z,4.00
2017-12-27T05:20:19.480Z,4.00
2017-12-27T05:22:47.001Z,3.90
2017-12-27T05:25:14.506Z,3.90
2017-12-27T05:27:42.000Z,3.90
2017-12-27T05:30:09.515Z,4.00
2017-12-27T05:32:37.008Z,3.90
2017-12-27T05:35:05.294Z,4.10
2017-12-27T05:37:33.561Z,4.10
2017-12-27T05:40:01.824Z,4.10
2017-12-27T05:42:29.332Z,4.10
2017-12-27T05:44:56.837Z,4.20
2017-12-27T05:47:24.344Z,4.20
2017-12-27T05:49:51.849Z,4.10
2017-12-27T05:52:19.365Z,4.10
2017-12-27T05:54:46.874Z,4.10
2017-12-27T05:57:14.384Z,4.20
2017-12-27T05:59:41.880Z,4.30
2017-12-27T06:02:09.409Z,4.30
2017-12-27T06:04:37.301Z,4.20
2017-12-27T06:07:04.813Z,4.20
2017-12-27T06:09:32.333Z,4.20
2017-12-27T06:11:59.833Z,4.20
2017-12-27T06:14:27.343Z,4.20
2017-12-27T06:16:54.844Z,4.20
2017-12-27T06:19:22.349Z,4.10
2017-12-27T06:21:50.252Z,4.20
2017-12-27T06:24:18.512Z,4.10
2017-12-27T06:26:46.012Z,4.10
2017-12-27T06:29:13.536Z,4.10
2017-12-27T06:31:41.028Z,4.00
2017-12-27T06:34:08.559Z,4.10
2017-12-27T06:36:36.828Z,4.00
2017-12-27T06:39:04.330Z,4.00
2017-12-27T06:41:31.836Z,4.00
2017-12-27T06:43:59.337Z,4.00
2017-12-27T06:46:26.852Z,4.00
2017-12-27T06:48:54.532Z,4.10
2017-12-27T06:51:22.797Z,4.20
2017-12-27T06:53:50.317Z,4.20
2017-12-27T06:56:17.824Z,4.20
2017-12-27T06:58:46.088Z,4.30
2017-12-27T07:01:13.600Z,4.30
2017-12-27T07:03:41.100Z,4.40
2017-12-27T07:06:08.613Z,4.30
2017-12-27T07:08:36.121Z,4.20
2017-12-27T07:11:03.621Z,4.20
2017-12-27T07:13:31.133Z,4.20
2017-12-27T07:15:58.743Z,4.20
2017-12-27T07:18:26.269Z,4.20
2017-12-27T07:20:53.778Z,4.20
2017-12-27T07:23:21.282Z,4.00
2017-12-27T07:25:48.784Z,4.10
2017-12-27T07:28:16.295Z,4.10
2017-12-27T07:30:43.821Z,4.00
2017-12-27T07:33:11.312Z,3.90
2017-12-27T07:35:38.825Z,4.00
2017-12-27T07:38:06.322Z,4.10
2017-12-27T07:40:33.837Z,4.10
2017-12-27T07:43:01.332Z,4.10
2017-12-27T07:45:28.844Z,4.10
2017-12-27T07:47:56.365Z,4.10
2017-12-27T07:50:23.873Z,4.10
2017-12-27T07:52:52.516Z,4.10
2017-12-27T07:55:20.029Z,4.10
2017-12-27T07:57:47.532Z,4.00
2017-12-27T08:00:15.049Z,3.90
2017-12-27T08:02:42.940Z,4.00
2017-12-27T08:05:10.436Z,3.90
2017-12-27T08:07:38.721Z,3.90
2017-12-27T08:10:06.212Z,3.90
2017-12-27T08:12:33.712Z,3.90
2017-12-27T08:15:01.229Z,3.90
2017-12-27T08:17:28.786Z,4.00
2017-12-27T08:19:56.256Z,4.10
2017-12-27T08:22:24.542Z,4.20
2017-12-27T08:24:52.048Z,4.20
2017-12-27T08:27:19.549Z,4.30
2017-12-27T08:29:47.068Z,4.30
2017-12-27T08:32:14.585Z,4.30
2017-12-27T08:34:42.112Z,4.40
2017-12-27T08:37:10.014Z,4.40
2017-12-27T08:39:37.508Z,4.40
2017-12-27T08:42:05.030Z,4.50
2017-12-27T08:44:32.521Z,4.50
2017-12-27T08:47:00.817Z,4.50
2017-12-27T08:49:28.317Z,4.40
2017-12-27T08:51:55.812Z,4.50
2017-12-27T08:54:24.096Z,4.60
2017-12-27T08:56:51.984Z,4.60
2017-12-27T08:59:19.485Z,4.50
2017-12-27T09:01:47.004Z,4.70
2017-12-27T09:04:15.277Z,4.60
2017-12-27T09:06:42.850Z,4.50
2017-12-27T09:09:10.685Z,4.50
2017-12-27T09:11:38.202Z,4.50
2017-12-27T09:14:07.204Z,4.40
2017-12-27T09:16:34.713Z,4.40
2017-12-27T09:19:02.212Z,4.50
2017-12-27T09:21:29.721Z,3.00
2017-12-27T09:23:57.305Z,4.50
2017-12-27T09:26:24.757Z,4.60
2017-12-27T09:28:52.256Z,4.60
2017-12-27T09:31:19.758Z,4.70
2017-12-27T09:33:47.267Z,4.60
2017-12-27T09:36:14.769Z,4.60
2017-12-27T09:38:42.708Z,4.70
2017-12-27T09:41:10.204Z,4.70
2017-12-27T09:43:37.704Z,4.70
2017-12-27T09:46:05.207Z,4.80
2017-12-27T09:48:32.713Z,4.80
2017-12-27T09:51:00.221Z,4.80
2017-12-27T09:53:27.762Z,4.80
2017-12-27T09:55:55.261Z,4.80
2017-12-27T09:58:22.780Z,4.80
2017-12-27T10:00:50.280Z,4.80
2017-12-27T10:03:17.782Z,4.90
2017-12-27T10:05:45.284Z,4.90
2017-12-27T10:08:12.797Z,4.90
2017-12-27T10:10:40.303Z,5.00
2017-12-27T10:13:07.809Z,5.00
2017-12-27T10:15:35.307Z,5.00
2017-12-27T10:18:03.576Z,5.20
2017-12-27T10:20:31.101Z,5.10
2017-12-27T10:22:58.609Z,5.10
2017-12-27T10:25:26.505Z,5.20
2017-12-27T10:27:54.013Z,5.20
2017-12-27T10:30:22.280Z,5.20
2017-12-27T10:32:49.785Z,5.20
2017-12-27T10:35:17.293Z,5.30
2017-12-27T10:37:44.798Z,5.30
2017-12-27T10:40:12.295Z,5.30
2017-12-27T10:42:39.805Z,5.30
2017-12-27T10:45:07.705Z,5.40
2017-12-27T10:47:35.205Z,5.40
2017-12-27T10:50:02.717Z,5.50
2017-12-27T10:52:30.221Z,5.50
2017-12-27T10:54:57.728Z,5.60
2017-12-27T10:57:25.253Z,5.70
2017-12-27T10:59:53.520Z,5.70
2017-12-27T11:02:21.797Z,5.80
2017-12-27T11:04:49.308Z,5.90
2017-12-27T11:07:16.796Z,6.00
2017-12-27T11:09:44.326Z,6.00
2017-12-27T11:12:12.209Z,6.10
2017-12-27T11:14:39.712Z,6.10
2017-12-27T11:17:07.980Z,6.10
2017-12-27T11:19:36.249Z,6.10
2017-12-27T11:22:03.766Z,6.10
2017-12-27T11:24:31.273Z,6.10
2017-12-27T11:26:59.532Z,6.10
2017-12-27T11:29:27.032Z,6.10
2017-12-27T11:31:54.528Z,6.10
2017-12-27T11:34:22.034Z,6.10
2017-12-27T11:36:50.312Z,6.10
2017-12-27T11:39:18.594Z,6.10
2017-12-27T11:41:46.526Z,6.10
2017-12-27T11:44:14.029Z,6.10
2017-12-27T11:46:42.292Z,6.10
2017-12-27T11:49:10.562Z,6.10
2017-12-27T11:51:38.829Z,6.10
2017-12-27T11:54:06.345Z,6.20
2017-12-27T11:56:34.630Z,6.20
2017-12-27T11:59:02.129Z,6.20
2017-12-27T12:01:30.392Z,6.20
2017-12-27T12:03:57.898Z,6.20
2017-12-27T12:06:25.401Z,6.20
2017-12-27T12:08:52.912Z,6.20
2017-12-27T12:11:20.428Z,6.20
2017-12-27T12:13:47.925Z,6.20
2017-12-27T12:16:15.429Z,6.20
2017-12-27T12:18:42.931Z,6.20
2017-12-27T12:21:11.205Z,6.20
2017-12-27T12:23:39.464Z,6.20
2017-12-27T12:26:06.974Z,6.20
2017-12-27T12:28:34.461Z,6.30
2017-12-27T12:31:01.968Z,6.30
2017-12-27T12:33:29.465Z,6.30
2017-12-27T12:35:56.964Z,6.30
2017-12-27T12:38:25.224Z,6.20
2017-12-27T12:40:52.737Z,6.20
2017-12-27T12:43:20.232Z,6.20
2017-12-27T12:45:47.754Z,6.20
2017-12-27T12:48:15.361Z,6.20
2017-12-27T12:50:42.856Z,6.20
2017-12-27T12:53:10.356Z,6.20
2017-12-27T12:55:37.867Z,6.20
2017-12-27T12:58:05.368Z,6.20
2017-12-27T13:00:32.889Z,6.30
2017-12-27T13:03:00.387Z,6.30
2017-12-27T13:05:27.893Z,6.30
2017-12-27T13:07:56.160Z,6.30
2017-12-27T13:10:24.419Z,6.30
2017-12-27T13:12:51.937Z,6.30
2017-12-27T13:15:19.432Z,6.30
2017-12-27T13:17:46.943Z,6.30
2017-12-27T13:20:14.448Z,6.40
2017-12-27T13:22:42.712Z,6.40
2017-12-27T13:25:10.216Z,6.40
2017-12-27T13:27:38.496Z,6.40
2017-12-27T13:30:06.765Z,6.40
2017-12-27T13:32:35.045Z,6.40
2017-12-27T13:35:03.309Z,6.40
2017-12-27T13:37:31.224Z,6.40
2017-12-27T13:39:58.716Z,6.40
2017-12-27T13:42:26.220Z,6.40
2017-12-27T13:44:53.728Z,6.50
2017-12-27T13:47:21.682Z,6.50
2017-12-27T13:49:49.883Z,6.50
2017-12-27T13:52:17.413Z,6.50
2017-12-27T13:54:44.917Z,6.50
2017-12-27T13:57:13.213Z,6.50
2017-12-27T13:59:41.472Z,6.50
2017-12-27T14:02:09.741Z,6.50
2017-12-27T14:04:37.240Z,6.50
2017-12-27T14:07:04.751Z,6.60
2017-12-27T14:09:32.261Z,6.60
2017-12-27T14:11:59.760Z,6.50
2017-12-27T14:14:27.309Z,6.50
2017-12-27T14:16:54.776Z,6.50
2017-12-27T14:19:22.293Z,6.60
2017-12-27T14:21:49.798Z,6.60
2017-12-27T14:24:17.307Z,6.60
2017-12-27T14:26:44.804Z,6.60
2017-12-27T14:29:12.318Z,6.50
2017-12-27T14:31:39.825Z,6.50
2017-12-27T14:34:07.329Z,6.50
2017-12-27T14:36:34.832Z,6.50
2017-12-27T14:39:02.328Z,6.50
2017-12-27T14:41:29.858Z,6.50
2017-12-27T14:43:57.355Z,6.50
2017-12-27T14:46:25.620Z,6.50
2017-12-27T14:48:53.948Z,6.50
2017-12-27T14:51:22.157Z,6.50
2017-12-27T14:53:49.664Z,6.50
2017-12-27T14:56:17.556Z,6.50
2017-12-27T14:58:45.452Z,6.50
2017-12-27T15:01:12.962Z,6.40
2017-12-27T15:03:41.224Z,6.40
2017-12-27T15:06:08.728Z,6.40
2017-12-27T15:08:36.228Z,6.40
2017-12-27T15:11:04.505Z,6.40
2017-12-27T15:13:32.789Z,6.40
2017-12-27T15:16:01.062Z,6.50
2017-12-27T15:18:28.961Z,6.50
2017-12-27T15:20:56.464Z,6.50
2017-12-27T15:23:23.973Z,6.40
2017-12-27T15:25:51.468Z,6.40
2017-12-27T15:28:18.972Z,6.40
2017-12-27T15:30:46.506Z,6.40
2017-12-27T15:33:14.009Z,6.40
2017-12-27T15:35:41.504Z,6.40
2017-12-27T15:38:09.016Z,6.40
2017-12-27T15:40:36.525Z,6.40
2017-12-27T15:43:04.021Z,6.50
2017-12-27T15:45:31.540Z,6.50
2017-12-27T15:47:59.040Z,6.50
2017-12-27T15:50:26.536Z,6.50
2017-12-27T15:52:54.048Z,6.50
2017-12-27T15:55:22.318Z,6.40
2017-12-27T15:57:50.603Z,6.40
2017-12-27T16:00:18.860Z,6.40
2017-12-27T16:02:46.364Z,6.40
2017-12-27T16:05:14.275Z,6.40
2017-12-27T16:07:41.787Z,6.30
2017-12-27T16:10:09.297Z,6.30
2017-12-27T16:12:36.789Z,6.30
2017-12-27T16:15:04.686Z,6.20
2017-12-27T16:17:32.193Z,6.10
2017-12-27T16:20:00.480Z,6.20
2017-12-27T16:22:28.758Z,6.20
2017-12-27T16:24:56.686Z,6.20
2017-12-27T16:27:24.148Z,6.10
2017-12-27T16:29:51.657Z,6.20
2017-12-27T16:32:19.161Z,6.20
2017-12-27T16:34:46.656Z,6.10
2017-12-27T16:37:14.931Z,6.10
2017-12-27T16:39:43.205Z,6.10
2017-12-27T16:42:11.493Z,6.10
2017-12-27T16:44:39.764Z,6.10
2017-12-27T16:47:08.028Z,6.10
2017-12-27T16:49:35.538Z,6.00
2017-12-27T16:52:03.032Z,6.10
2017-12-27T16:54:30.536Z,6.00
2017-12-27T16:56:58.028Z,6.00
2017-12-27T16:59:25.532Z,6.00
2017-12-27T17:01:53.839Z,6.10
2017-12-27T17:04:22.068Z,6.10
2017-12-27T17:06:49.572Z,6.10
2017-12-27T17:09:17.072Z,6.10
2017-12-27T17:11:44.585Z,6.00
2017-12-27T17:14:12.178Z,6.00
2017-12-27T17:16:39.670Z,6.00
2017-12-27T17:19:07.185Z,6.00
2017-12-27T17:21:34.683Z,6.00
2017-12-27T17:24:02.188Z,6.00
2017-12-27T17:26:29.690Z,6.00
2017-12-27T17:28:57.195Z,6.00
2017-12-27T17:31:24.709Z,6.00
2017-12-27T17:33:52.221Z,5.90
2017-12-27T17:36:19.722Z,5.90
2017-12-27T17:38:47.227Z,5.90
2017-12-27T17:41:14.716Z,5.80
2017-12-27T17:43:42.225Z,5.80
2017-12-27T17:46:10.508Z,5.80
2017-12-27T17:48:38.776Z,5.80
2017-12-27T17:51:07.113Z,5.70
2017-12-27T17:53:35.333Z,5.70
2017-12-27T17:56:03.603Z,5.70
2017-12-27T17:58:31.868Z,5.80
2017-12-27T18:00:59.365Z,5.80
2017-12-27T18:03:26.864Z,5.80
2017-12-27T18:05:54.369Z,5.80
2017-12-27T18:08:22.641Z,5.80
2017-12-27T18:10:50.906Z,5.70
2017-12-27T18:13:19.176Z,5.70
2017-12-27T18:15:46.681Z,5.70
2017-12-27T18:18:14.201Z,5.70
2017-12-27T18:20:42.469Z,5.70
2017-12-27T18:23:09.976Z,5.70
2017-12-27T18:25:37.472Z,5.70
2017-12-27T18:28:04.973Z,5.70
2017-12-27T18:30:32.481Z,5.70
2017-12-27T18:32:59.985Z,5.80
2017-12-27T18:35:28.256Z,5.80
2017-12-27T18:37:56.521Z,5.80
2017-12-27T18:40:24.788Z,5.70
2017-12-27T18:42:52.297Z,5.80
2017-12-27T18:45:19.804Z,5.80
2017-12-27T18:47:47.312Z,5.80
2017-12-27T18:50:14.818Z,5.80
2017-12-27T18:52:42.319Z,5.80
2017-12-27T18:55:09.821Z,5.80
2017-12-27T18:57:37.383Z,5.90
2017-12-27T19:00:04.866Z,5.90
2017-12-27T19:02:32.364Z,5.80
2017-12-27T19:04:59.912Z,5.80
2017-12-27T19:07:27.446Z,5.90
2017-12-27T19:09:54.942Z,6.00
2017-12-27T19:12:22.436Z,6.00
2017-12-27T19:14:49.942Z,6.00
2017-12-27T19:17:17.456Z,6.00
2017-12-27T19:19:44.961Z,6.00
2017-12-27T19:22:12.456Z,5.90
2017-12-27T19:24:39.971Z,5.90
2017-12-27T19:27:08.232Z,5.80
2017-12-27T19:29:36.500Z,5.90
2017-12-27T19:32:04.025Z,5.90
2017-12-27T19:34:31.524Z,5.90
2017-12-27T19:36:59.793Z,5.90
2017-12-27T19:39:27.292Z,5.90
2017-12-27T19:41:54.808Z,5.90
2017-12-27T19:44:22.304Z,5.90
2017-12-27T19:46:49.800Z,5.90
2017-12-27T19:49:17.308Z,5.90
2017-12-27T19:51:45.585Z,5.90
2017-12-27T19:54:13.852Z,5.90
2017-12-27T19:56:42.116Z,5.90
2017-12-27T19:59:09.621Z,5.90
2017-12-27T20:01:37.124Z,5.90
2017-12-27T20:04:04.630Z,5.90
2017-12-27T20:06:32.137Z,5.90
2017-12-27T20:08:59.636Z,5.90
2017-12-27T20:11:27.136Z,6.00
2017-12-27T20:13:54.645Z,6.00
2017-12-27T20:16:22.909Z,6.10
2017-12-27T20:18:51.186Z,6.00
2017-12-27T20:21:18.684Z,6.00
2017-12-27T20:23:46.180Z,6.00
2017-12-27T20:26:13.693Z,6.00
2017-12-27T20:28:41.188Z,6.00
2017-12-27T20:31:08.701Z,6.00
2017-12-27T20:33:36.205Z,6.00
2017-12-27T20:36:03.713Z,6.00
2017-12-27T20:38:31.972Z,5.90
2017-12-27T20:41:00.245Z,5.90
2017-12-27T20:43:27.756Z,5.90
2017-12-27T20:45:55.256Z,5.90
2017-12-27T20:48:22.765Z,5.80
2017-12-27T20:50:50.274Z,5.70
2017-12-27T20:53:17.776Z,5.80
2017-12-27T20:55:45.285Z,5.80
2017-12-27T20:58:12.785Z,5.80
2017-12-27T21:00:40.294Z,5.80
2017-12-27T21:03:07.801Z,5.70
2017-12-27T21:05:36.073Z,5.70
2017-12-27T21:08:03.572Z,5.70
2017-12-27T21:10:31.085Z,5.70
2017-12-27T21:12:59.356Z,5.70
2017-12-27T21:15:27.624Z,5.70
2017-12-27T21:17:55.908Z,5.70
2017-12-27T21:20:24.173Z,5.70
2017-12-27T21:22:51.677Z,5.70
2017-12-27T21:25:19.180Z,5.70
2017-12-27T21:27:46.681Z,5.60
2017-12-27T21:30:14.189Z,5.60
2017-12-27T21:32:41.684Z,5.50
2017-12-27T21:35:09.961Z,5.70
2017-12-27T21:37:38.224Z,5.60
2017-12-27T21:40:06.521Z,5.60
2017-12-27T21:42:34.776Z,5.60
2017-12-27T21:45:03.036Z,5.60
2017-12-27T21:47:36.285Z,5.60
2017-12-27T21:50:04.189Z,5.50
2017-12-27T21:52:31.693Z,5.50
2017-12-27T21:54:59.210Z,5.50
2017-12-27T21:57:26.708Z,5.50
2017-12-27T22:00:00.010Z,5.50
2017-12-27T22:02:27.496Z,5.50
2017-12-27T22:04:55.016Z,5.50
2017-12-27T22:07:23.282Z,5.50
2017-12-27T22:09:50.810Z,5.40
2017-12-27T22:12:18.285Z,5.40
2017-12-27T22:14:45.789Z,5.40
2017-12-27T22:17:13.293Z,5.40
2017-12-27T22:19:40.801Z,5.20
2017-12-27T22:22:08.296Z,5.20
2017-12-27T22:24:35.800Z,5.10
2017-12-27T22:27:04.065Z,5.00
2017-12-27T22:29:32.334Z,5.00
2017-12-27T22:31:59.846Z,5.00
2017-12-27T22:34:27.349Z,5.00
2017-12-27T22:36:55.244Z,5.00
2017-12-27T22:39:22.740Z,5.00
2017-12-27T22:41:50.645Z,5.00
2017-12-27T22:44:18.158Z,5.00
2017-12-27T22:46:45.656Z,5.00
2017-12-27T22:49:13.160Z,5.00
2017-12-27T22:51:40.659Z,5.10
2017-12-27T22:54:08.161Z,5.00
2017-12-27T22:56:35.681Z,5.00
2017-12-27T22:59:03.176Z,5.00
2017-12-27T23:01:31.444Z,5.00
2017-12-27T23:03:59.714Z,5.00
2017-12-27T23:06:27.236Z,5.00
2017-12-27T23:08:54.741Z,5.00
2017-12-27T23:11:22.999Z,5.00
2017-12-27T23:13:50.510Z,5.00
2017-12-27T23:16:18.004Z,5.00
2017-12-27T23:18:45.512Z,5.00
2017-12-27T23:21:13.012Z,5.00
2017-12-27T23:23:40.512Z,5.00
2017-12-27T23:26:08.780Z,5.00
2017-12-27T23:28:37.073Z,5.00
2017-12-27T23:31:04.569Z,5.00
2017-12-27T23:33:32.064Z,5.00
2017-12-27T23:36:00.041Z,5.00
2017-12-27T23:38:28.858Z,5.00
2017-12-27T23:40:58.273Z,5.00
2017-12-27T23:43:26.330Z,5.00
2017-12-27T23:45:54.768Z,5.00
2017-12-27T23:48:22.839Z,5.00
2017-12-27T23:50:50.894Z,5.00
2017-12-27T23:53:18.940Z,5.00
2017-12-27T23:55:46.997Z,4.90
2017-12-27T23:58:15.054Z,4.90
